sensor_id;sensor_type;location;lat;lon;timestamp;pressure;altitude;pressure_sealevel;temperature;humidity
74790;BME280;63318;52.406;13.416;2024-02-26T00:02:27;100116.73;;;1.43;77.22
74790;BME280;63318;52.406;13.416;2024-02-26T00:04:56;100113.91;;;1.42;77.29
74790;BME280;63318;52.406;13.416;2024-02-26T00:07:24;100117.55;;;1.41;77.52
74790;BME280;63318;52.406;13.416;2024-02-26T00:09:52;100119.80;;;1.41;77.08
74790;BME280;63318;52.406;13.416;2024-02-26T00:12:20;100115.77;;;1.40;77.51
74790;BME280;63318;52.406;13.416;2024-02-26T00:14:48;100114.16;;;1.39;77.65
74790;BME280;63318;52.406;13.416;2024-02-26T00:17:17;100107.55;;;1.40;77.69
74790;BME280;63318;52.406;13.416;2024-02-26T00:19:45;100101.27;;;1.40;77.56
74790;BME280;63318;52.406;13.416;2024-02-26T00:22:13;100099.09;;;1.40;78.20
74790;BME280;63318;52.406;13.416;2024-02-26T00:24:42;100102.33;;;1.41;78.80
74790;BME280;63318;52.406;13.416;2024-02-26T00:27:10;100100.10;;;1.39;78.78
74790;BME280;63318;52.406;13.416;2024-02-26T00:29:39;100091.48;;;1.40;78.31
74790;BME280;63318;52.406;13.416;2024-02-26T00:32:07;100091.68;;;1.40;78.89
74790;BME280;63318;52.406;13.416;2024-02-26T00:34:36;100088.23;;;1.38;78.72
74790;BME280;63318;52.406;13.416;2024-02-26T00:37:04;100086.77;;;1.36;78.87
74790;BME280;63318;52.406;13.416;2024-02-26T00:39:32;100081.21;;;1.33;78.53
74790;BME280;63318;52.406;13.416;2024-02-26T00:42:00;100081.58;;;1.31;78.71
74790;BME280;63318;52.406;13.416;2024-02-26T00:44:29;100081.74;;;1.27;78.74
74790;BME280;63318;52.406;13.416;2024-02-26T00:46:57;100084.79;;;1.23;78.56
74790;BME280;63318;52.406;13.416;2024-02-26T00:49:25;100077.73;;;1.20;78.47
74790;BME280;63318;52.406;13.416;2024-02-26T00:51:53;100077.42;;;1.17;78.71
74790;BME280;63318;52.406;13.416;2024-02-26T00:54:21;100073.79;;;1.15;78.82
74790;BME280;63318;52.406;13.416;2024-02-26T00:56:50;100073.66;;;1.12;78.88
74790;BME280;63318;52.406;13.416;2024-02-26T00:59:18;100076.67;;;1.09;78.79
74790;BME280;63318;52.406;13.416;2024-02-26T01:01:46;100078.64;;;1.07;79.00
74790;BME280;63318;52.406;13.416;2024-02-26T01:04:14;100086.52;;;1.04;78.36
74790;BME280;63318;52.406;13.416;2024-02-26T01:06:42;100081.81;;;1.01;78.35
74790;BME280;63318;52.406;13.416;2024-02-26T01:09:11;100077.14;;;0.99;78.80
74790;BME280;63318;52.406;13.416;2024-02-26T01:11:39;100072.00;;;0.97;78.75
74790;BME280;63318;52.406;13.416;2024-02-26T01:14:07;100070.94;;;0.94;79.22
74790;BME280;63318;52.406;13.416;2024-02-26T01:16:35;100069.25;;;0.91;79.22
74790;BME280;63318;52.406;13.416;2024-02-26T01:19:03;100067.69;;;0.88;78.93
74790;BME280;63318;52.406;13.416;2024-02-26T01:21:32;100067.60;;;0.85;79.00
74790;BME280;63318;52.406;13.416;2024-02-26T01:24:00;100059.73;;;0.81;79.44
74790;BME280;63318;52.406;13.416;2024-02-26T01:26:28;100060.13;;;0.79;79.02
74790;BME280;63318;52.406;13.416;2024-02-26T01:28:56;100063.20;;;0.75;79.30
74790;BME280;63318;52.406;13.416;2024-02-26T01:31:25;100066.10;;;0.72;79.55
74790;BME280;63318;52.406;13.416;2024-02-26T01:33:53;100062.93;;;0.69;79.17
74790;BME280;63318;52.406;13.416;2024-02-26T01:36:21;100062.91;;;0.67;79.34
74790;BME280;63318;52.406;13.416;2024-02-26T01:38:49;100061.63;;;0.65;79.31
74790;BME280;63318;52.406;13.416;2024-02-26T01:41:17;100058.19;;;0.61;79.32
74790;BME280;63318;52.406;13.416;2024-02-26T01:43:46;100059.95;;;0.58;79.69
74790;BME280;63318;52.406;13.416;2024-02-26T01:46:16;100060.17;;;0.55;79.38
74790;BME280;63318;52.406;13.416;2024-02-26T01:48:45;100061.26;;;0.53;79.48
74790;BME280;63318;52.406;13.416;2024-02-26T01:51:15;100063.59;;;0.51;79.26
74790;BME280;63318;52.406;13.416;2024-02-26T01:53:43;100062.47;;;0.48;79.69
74790;BME280;63318;52.406;13.416;2024-02-26T01:56:12;100066.38;;;0.45;79.53
74790;BME280;63318;52.406;13.416;2024-02-26T01:58:42;100066.45;;;0.43;79.49
74790;BME280;63318;52.406;13.416;2024-02-26T02:01:11;100068.20;;;0.39;79.37
74790;BME280;63318;52.406;13.416;2024-02-26T02:03:40;100068.10;;;0.36;79.17
74790;BME280;63318;52.406;13.416;2024-02-26T02:06:08;100068.77;;;0.33;79.35
74790;BME280;63318;52.406;13.416;2024-02-26T02:08:38;100073.04;;;0.30;79.48
74790;BME280;63318;52.406;13.416;2024-02-26T02:11:08;100077.30;;;0.28;79.85
74790;BME280;63318;52.406;13.416;2024-02-26T02:13:37;100075.59;;;0.26;80.13
74790;BME280;63318;52.406;13.416;2024-02-26T02:16:06;100071.54;;;0.24;79.72
74790;BME280;63318;52.406;13.416;2024-02-26T02:18:34;100074.23;;;0.23;79.61
74790;BME280;63318;52.406;13.416;2024-02-26T02:21:03;100074.88;;;0.23;79.87
74790;BME280;63318;52.406;13.416;2024-02-26T02:23:31;100072.98;;;0.22;80.08
74790;BME280;63318;52.406;13.416;2024-02-26T02:26:00;100076.27;;;0.22;80.46
74790;BME280;63318;52.406;13.416;2024-02-26T02:28:29;100076.05;;;0.22;80.34
74790;BME280;63318;52.406;13.416;2024-02-26T02:30:57;100074.79;;;0.22;80.14
74790;BME280;63318;52.406;13.416;2024-02-26T02:33:26;100078.48;;;0.23;80.07
74790;BME280;63318;52.406;13.416;2024-02-26T02:35:55;100082.00;;;0.24;80.18
74790;BME280;63318;52.406;13.416;2024-02-26T02:38:23;100082.70;;;0.25;80.24
74790;BME280;63318;52.406;13.416;2024-02-26T02:40:51;100085.77;;;0.27;80.35
74790;BME280;63318;52.406;13.416;2024-02-26T02:43:19;100081.60;;;0.28;80.62
74790;BME280;63318;52.406;13.416;2024-02-26T02:45:48;100079.89;;;0.29;80.45
74790;BME280;63318;52.406;13.416;2024-02-26T02:48:16;100082.65;;;0.30;80.98
74790;BME280;63318;52.406;13.416;2024-02-26T02:50:44;100079.11;;;0.31;80.98
74790;BME280;63318;52.406;13.416;2024-02-26T02:53:12;100077.77;;;0.31;80.90
74790;BME280;63318;52.406;13.416;2024-02-26T02:55:41;100077.81;;;0.31;80.88
74790;BME280;63318;52.406;13.416;2024-02-26T02:58:09;100079.30;;;0.30;80.83
74790;BME280;63318;52.406;13.416;2024-02-26T03:00:37;100078.27;;;0.28;81.05
74790;BME280;63318;52.406;13.416;2024-02-26T03:03:06;100076.41;;;0.26;80.86
74790;BME280;63318;52.406;13.416;2024-02-26T03:05:34;100075.27;;;0.24;80.65
74790;BME280;63318;52.406;13.416;2024-02-26T03:08:03;100077.66;;;0.21;80.82
74790;BME280;63318;52.406;13.416;2024-02-26T03:10:31;100085.10;;;0.19;80.71
74790;BME280;63318;52.406;13.416;2024-02-26T03:13:00;100083.25;;;0.16;80.90
74790;BME280;63318;52.406;13.416;2024-02-26T03:15:28;100081.88;;;0.15;80.69
74790;BME280;63318;52.406;13.416;2024-02-26T03:17:56;100081.33;;;0.13;80.91
74790;BME280;63318;52.406;13.416;2024-02-26T03:20:24;100081.65;;;0.12;81.10
74790;BME280;63318;52.406;13.416;2024-02-26T03:22:52;100075.01;;;0.09;80.88
74790;BME280;63318;52.406;13.416;2024-02-26T03:25:21;100076.16;;;0.05;80.70
74790;BME280;63318;52.406;13.416;2024-02-26T03:27:49;100076.77;;;0.03;80.97
74790;BME280;63318;52.406;13.416;2024-02-26T03:30:17;100072.96;;;-0.01;81.19
74790;BME280;63318;52.406;13.416;2024-02-26T03:32:45;100070.08;;;-0.02;81.06
74790;BME280;63318;52.406;13.416;2024-02-26T03:35:14;100065.94;;;-0.03;80.82
74790;BME280;63318;52.406;13.416;2024-02-26T03:37:42;100061.54;;;-0.06;81.40
74790;BME280;63318;52.406;13.416;2024-02-26T03:40:12;100065.54;;;-0.07;81.11
74790;BME280;63318;52.406;13.416;2024-02-26T03:42:40;100071.27;;;-0.09;81.37
74790;BME280;63318;52.406;13.416;2024-02-26T03:45:10;100077.88;;;-0.10;81.12
74790;BME280;63318;52.406;13.416;2024-02-26T03:47:39;100081.48;;;-0.12;81.40
74790;BME280;63318;52.406;13.416;2024-02-26T03:50:09;100079.12;;;-0.13;81.79
74790;BME280;63318;52.406;13.416;2024-02-26T03:52:37;100084.97;;;-0.14;81.36
74790;BME280;63318;52.406;13.416;2024-02-26T03:55:06;100087.27;;;-0.15;81.34
74790;BME280;63318;52.406;13.416;2024-02-26T03:57:34;100085.09;;;-0.16;81.48
74790;BME280;63318;52.406;13.416;2024-02-26T04:00:04;100087.33;;;-0.16;81.36
74790;BME280;63318;52.406;13.416;2024-02-26T04:02:32;100088.51;;;-0.18;81.51
74790;BME280;63318;52.406;13.416;2024-02-26T04:05:01;100091.73;;;-0.18;81.47
74790;BME280;63318;52.406;13.416;2024-02-26T04:07:29;100087.64;;;-0.20;81.48
74790;BME280;63318;52.406;13.416;2024-02-26T04:09:57;100089.58;;;-0.22;81.59
74790;BME280;63318;52.406;13.416;2024-02-26T04:12:25;100094.13;;;-0.23;81.56
74790;BME280;63318;52.406;13.416;2024-02-26T04:14:54;100093.71;;;-0.24;81.45
74790;BME280;63318;52.406;13.416;2024-02-26T04:17:22;100092.22;;;-0.25;81.66
74790;BME280;63318;52.406;13.416;2024-02-26T04:19:50;100087.85;;;-0.26;81.75
74790;BME280;63318;52.406;13.416;2024-02-26T04:22:18;100087.58;;;-0.28;81.50
74790;BME280;63318;52.406;13.416;2024-02-26T04:24:46;100088.13;;;-0.29;81.34
74790;BME280;63318;52.406;13.416;2024-02-26T04:27:15;100090.61;;;-0.30;81.44
74790;BME280;63318;52.406;13.416;2024-02-26T04:29:43;100096.20;;;-0.30;81.98
74790;BME280;63318;52.406;13.416;2024-02-26T04:32:11;100105.42;;;-0.29;82.01
74790;BME280;63318;52.406;13.416;2024-02-26T04:34:39;100110.77;;;-0.30;82.12
74790;BME280;63318;52.406;13.416;2024-02-26T04:37:07;100115.67;;;-0.30;81.95
74790;BME280;63318;52.406;13.416;2024-02-26T04:39:36;100120.29;;;-0.30;82.35
74790;BME280;63318;52.406;13.416;2024-02-26T04:42:04;100122.48;;;-0.30;82.51
74790;BME280;63318;52.406;13.416;2024-02-26T04:44:32;100122.65;;;-0.30;82.30
74790;BME280;63318;52.406;13.416;2024-02-26T04:47:01;100125.59;;;-0.30;82.01
74790;BME280;63318;52.406;13.416;2024-02-26T04:49:29;100129.23;;;-0.31;82.06
74790;BME280;63318;52.406;13.416;2024-02-26T04:51:57;100128.05;;;-0.30;82.17
74790;BME280;63318;52.406;13.416;2024-02-26T04:54:25;100126.89;;;-0.31;82.14
74790;BME280;63318;52.406;13.416;2024-02-26T04:56:53;100125.34;;;-0.31;82.22
74790;BME280;63318;52.406;13.416;2024-02-26T04:59:22;100125.38;;;-0.32;82.21
74790;BME280;63318;52.406;13.416;2024-02-26T05:01:50;100125.38;;;-0.31;82.59
74790;BME280;63318;52.406;13.416;2024-02-26T05:04:18;100125.33;;;-0.32;82.62
74790;BME280;63318;52.406;13.416;2024-02-26T05:06:46;100123.88;;;-0.34;82.34
74790;BME280;63318;52.406;13.416;2024-02-26T05:09:15;100130.00;;;-0.35;82.51
74790;BME280;63318;52.406;13.416;2024-02-26T05:11:43;100133.82;;;-0.35;82.52
74790;BME280;63318;52.406;13.416;2024-02-26T05:14:11;100137.30;;;-0.35;82.52
74790;BME280;63318;52.406;13.416;2024-02-26T05:16:39;100138.54;;;-0.36;82.66
74790;BME280;63318;52.406;13.416;2024-02-26T05:19:08;100141.23;;;-0.37;82.14
74790;BME280;63318;52.406;13.416;2024-02-26T05:21:36;100145.73;;;-0.38;82.64
74790;BME280;63318;52.406;13.416;2024-02-26T05:24:05;100147.83;;;-0.38;82.43
74790;BME280;63318;52.406;13.416;2024-02-26T05:26:33;100148.45;;;-0.39;82.49
74790;BME280;63318;52.406;13.416;2024-02-26T05:29:01;100153.58;;;-0.39;82.70
74790;BME280;63318;52.406;13.416;2024-02-26T05:31:29;100149.52;;;-0.39;83.04
74790;BME280;63318;52.406;13.416;2024-02-26T05:33:58;100150.73;;;-0.38;82.80
74790;BME280;63318;52.406;13.416;2024-02-26T05:36:26;100149.60;;;-0.38;82.72
74790;BME280;63318;52.406;13.416;2024-02-26T05:38:54;100151.27;;;-0.38;82.68
74790;BME280;63318;52.406;13.416;2024-02-26T05:41:22;100154.05;;;-0.39;82.88
74790;BME280;63318;52.406;13.416;2024-02-26T05:43:51;100151.82;;;-0.38;83.15
74790;BME280;63318;52.406;13.416;2024-02-26T05:46:19;100151.73;;;-0.39;82.82
74790;BME280;63318;52.406;13.416;2024-02-26T05:48:49;100154.23;;;-0.40;83.29
74790;BME280;63318;52.406;13.416;2024-02-26T05:51:19;100157.99;;;-0.41;82.88
74790;BME280;63318;52.406;13.416;2024-02-26T05:53:47;100161.69;;;-0.41;83.18
74790;BME280;63318;52.406;13.416;2024-02-26T05:56:15;100167.77;;;-0.42;83.00
74790;BME280;63318;52.406;13.416;2024-02-26T05:58:44;100169.46;;;-0.42;83.06
74790;BME280;63318;52.406;13.416;2024-02-26T06:01:12;100168.87;;;-0.42;83.33
74790;BME280;63318;52.406;13.416;2024-02-26T06:03:41;100171.77;;;-0.42;83.19
74790;BME280;63318;52.406;13.416;2024-02-26T06:06:09;100173.50;;;-0.42;83.14
74790;BME280;63318;52.406;13.416;2024-02-26T06:08:37;100176.30;;;-0.43;83.24
74790;BME280;63318;52.406;13.416;2024-02-26T06:11:08;100181.59;;;-0.43;83.03
74790;BME280;63318;52.406;13.416;2024-02-26T06:13:36;100180.58;;;-0.42;83.03
74790;BME280;63318;52.406;13.416;2024-02-26T06:16:05;100184.19;;;-0.42;83.22
74790;BME280;63318;52.406;13.416;2024-02-26T06:18:34;100183.31;;;-0.42;83.34
74790;BME280;63318;52.406;13.416;2024-02-26T06:21:02;100179.96;;;-0.40;83.24
74790;BME280;63318;52.406;13.416;2024-02-26T06:23:30;100185.77;;;-0.39;83.49
74790;BME280;63318;52.406;13.416;2024-02-26T06:25:58;100189.01;;;-0.37;83.55
74790;BME280;63318;52.406;13.416;2024-02-26T06:28:27;100192.39;;;-0.36;83.48
74790;BME280;63318;52.406;13.416;2024-02-26T06:30:55;100193.55;;;-0.34;83.46
74790;BME280;63318;52.406;13.416;2024-02-26T06:33:23;100200.09;;;-0.31;83.64
74790;BME280;63318;52.406;13.416;2024-02-26T06:35:52;100204.40;;;-0.28;83.47
74790;BME280;63318;52.406;13.416;2024-02-26T06:38:20;100207.58;;;-0.25;83.89
74790;BME280;63318;52.406;13.416;2024-02-26T06:40:48;100211.63;;;-0.21;84.06
74790;BME280;63318;52.406;13.416;2024-02-26T06:43:17;100213.23;;;-0.15;84.14
74790;BME280;63318;52.406;13.416;2024-02-26T06:45:45;100212.73;;;-0.09;84.18
74790;BME280;63318;52.406;13.416;2024-02-26T06:48:13;100213.09;;;-0.03;84.27
74790;BME280;63318;52.406;13.416;2024-02-26T06:50:42;100214.39;;;0.03;84.38
74790;BME280;63318;52.406;13.416;2024-02-26T06:53:10;100215.92;;;0.09;84.70
74790;BME280;63318;52.406;13.416;2024-02-26T06:55:38;100218.06;;;0.15;84.70
74790;BME280;63318;52.406;13.416;2024-02-26T06:58:07;100225.08;;;0.20;84.81
74790;BME280;63318;52.406;13.416;2024-02-26T07:00:35;100228.88;;;0.25;85.46
74790;BME280;63318;52.406;13.416;2024-02-26T07:03:03;100231.31;;;0.31;85.07
74790;BME280;63318;52.406;13.416;2024-02-26T07:05:32;100229.51;;;0.37;85.24
74790;BME280;63318;52.406;13.416;2024-02-26T07:08:00;100231.82;;;0.42;85.48
74790;BME280;63318;52.406;13.416;2024-02-26T07:10:28;100233.75;;;0.49;85.23
74790;BME280;63318;52.406;13.416;2024-02-26T07:12:57;100240.77;;;0.54;85.80
74790;BME280;63318;52.406;13.416;2024-02-26T07:15:25;100238.14;;;0.61;85.71
74790;BME280;63318;52.406;13.416;2024-02-26T07:17:53;100236.94;;;0.67;85.81
74790;BME280;63318;52.406;13.416;2024-02-26T07:20:21;100236.88;;;0.74;85.71
74790;BME280;63318;52.406;13.416;2024-02-26T07:22:49;100230.71;;;0.81;86.54
74790;BME280;63318;52.406;13.416;2024-02-26T07:25:18;100235.54;;;0.88;86.28
74790;BME280;63318;52.406;13.416;2024-02-26T07:27:46;100227.95;;;0.95;86.15
74790;BME280;63318;52.406;13.416;2024-02-26T07:30:17;100232.25;;;1.03;86.43
74790;BME280;63318;52.406;13.416;2024-02-26T07:32:45;100236.58;;;1.10;86.58
74790;BME280;63318;52.406;13.416;2024-02-26T07:35:14;100238.22;;;1.19;86.59
74790;BME280;63318;52.406;13.416;2024-02-26T07:37:42;100241.55;;;1.27;86.63
74790;BME280;63318;52.406;13.416;2024-02-26T07:40:11;100238.81;;;1.35;86.59
74790;BME280;63318;52.406;13.416;2024-02-26T07:42:39;100239.85;;;1.45;86.67
74790;BME280;63318;52.406;13.416;2024-02-26T07:45:09;100231.30;;;1.53;86.82
74790;BME280;63318;52.406;13.416;2024-02-26T07:47:38;100229.25;;;1.61;86.98
74790;BME280;63318;52.406;13.416;2024-02-26T07:50:07;100228.14;;;1.70;86.71
74790;BME280;63318;52.406;13.416;2024-02-26T07:52:36;100229.98;;;1.81;86.84
74790;BME280;63318;52.406;13.416;2024-02-26T07:55:05;100229.98;;;1.90;86.76
74790;BME280;63318;52.406;13.416;2024-02-26T07:57:34;100232.11;;;2.01;86.79
74790;BME280;63318;52.406;13.416;2024-02-26T08:00:03;100231.58;;;2.12;86.31
74790;BME280;63318;52.406;13.416;2024-02-26T08:02:31;100233.39;;;2.24;86.38
74790;BME280;63318;52.406;13.416;2024-02-26T08:04:59;100230.94;;;2.34;86.68
74790;BME280;63318;52.406;13.416;2024-02-26T08:07:27;100232.25;;;2.44;86.85
74790;BME280;63318;52.406;13.416;2024-02-26T08:09:56;100238.60;;;2.54;87.02
74790;BME280;63318;52.406;13.416;2024-02-26T08:12:24;100238.81;;;2.64;87.07
74790;BME280;63318;52.406;13.416;2024-02-26T08:14:52;100243.33;;;2.74;86.90
74790;BME280;63318;52.406;13.416;2024-02-26T08:17:20;100249.80;;;2.84;86.92
74790;BME280;63318;52.406;13.416;2024-02-26T08:19:49;100244.34;;;2.95;86.92
74790;BME280;63318;52.406;13.416;2024-02-26T08:22:17;100240.66;;;3.05;87.17
74790;BME280;63318;52.406;13.416;2024-02-26T08:24:45;100242.27;;;3.18;86.88
74790;BME280;63318;52.406;13.416;2024-02-26T08:27:13;100238.77;;;3.32;86.90
74790;BME280;63318;52.406;13.416;2024-02-26T08:29:44;100240.05;;;3.47;86.91
74790;BME280;63318;52.406;13.416;2024-02-26T08:32:13;100235.27;;;3.65;86.23
74790;BME280;63318;52.406;13.416;2024-02-26T08:34:41;100233.83;;;3.82;86.25
74790;BME280;63318;52.406;13.416;2024-02-26T08:37:09;100235.52;;;3.97;85.51
74790;BME280;63318;52.406;13.416;2024-02-26T08:39:37;100236.91;;;4.11;85.81
74790;BME280;63318;52.406;13.416;2024-02-26T08:42:06;100234.94;;;4.23;84.43
74790;BME280;63318;52.406;13.416;2024-02-26T08:44:34;100233.84;;;4.37;85.07
74790;BME280;63318;52.406;13.416;2024-02-26T08:47:03;100235.47;;;4.51;85.12
74790;BME280;63318;52.406;13.416;2024-02-26T08:49:31;100235.16;;;4.67;85.03
74790;BME280;63318;52.406;13.416;2024-02-26T08:51:59;100232.02;;;4.86;85.18
74790;BME280;63318;52.406;13.416;2024-02-26T08:54:28;100231.58;;;5.06;85.03
74790;BME280;63318;52.406;13.416;2024-02-26T08:56:59;100233.52;;;5.24;84.38
74790;BME280;63318;52.406;13.416;2024-02-26T08:59:27;100233.07;;;5.40;83.83
74790;BME280;63318;52.406;13.416;2024-02-26T09:01:57;100228.85;;;5.57;83.64
74790;BME280;63318;52.406;13.416;2024-02-26T09:04:25;100226.79;;;5.72;83.23
74790;BME280;63318;52.406;13.416;2024-02-26T09:06:53;100223.41;;;5.86;82.81
74790;BME280;63318;52.406;13.416;2024-02-26T09:09:22;100224.55;;;5.97;82.54
74790;BME280;63318;52.406;13.416;2024-02-26T09:11:50;100220.41;;;6.06;82.45
74790;BME280;63318;52.406;13.416;2024-02-26T09:14:19;100223.81;;;6.13;82.35
74790;BME280;63318;52.406;13.416;2024-02-26T09:16:47;100221.98;;;6.18;82.15
74790;BME280;63318;52.406;13.416;2024-02-26T09:19:15;100223.73;;;6.22;82.08
74790;BME280;63318;52.406;13.416;2024-02-26T09:21:45;100225.60;;;6.29;81.79
74790;BME280;63318;52.406;13.416;2024-02-26T09:24:14;100226.23;;;6.37;81.43
74790;BME280;63318;52.406;13.416;2024-02-26T09:26:42;100222.77;;;6.45;81.63
74790;BME280;63318;52.406;13.416;2024-02-26T09:29:10;100230.64;;;6.57;81.53
74790;BME280;63318;52.406;13.416;2024-02-26T09:31:38;100234.42;;;6.72;81.22
74790;BME280;63318;52.406;13.416;2024-02-26T09:34:07;100233.79;;;6.86;80.74
74790;BME280;63318;52.406;13.416;2024-02-26T09:36:35;100233.48;;;7.01;80.62
74790;BME280;63318;52.406;13.416;2024-02-26T09:39:04;100235.75;;;7.16;80.51
74790;BME280;63318;52.406;13.416;2024-02-26T09:41:32;100239.14;;;7.32;80.18
74790;BME280;63318;52.406;13.416;2024-02-26T09:44:04;100241.34;;;7.46;80.07
74790;BME280;63318;52.406;13.416;2024-02-26T09:46:33;100240.28;;;7.61;79.54
74790;BME280;63318;52.406;13.416;2024-02-26T09:49:01;100240.42;;;7.76;79.21
74790;BME280;63318;52.406;13.416;2024-02-26T09:51:29;100236.55;;;7.88;78.88
74790;BME280;63318;52.406;13.416;2024-02-26T09:54:01;100235.00;;;8.00;79.00
74790;BME280;63318;52.406;13.416;2024-02-26T09:56:30;100236.94;;;8.11;78.44
74790;BME280;63318;52.406;13.416;2024-02-26T09:58:59;100232.51;;;8.23;78.13
74790;BME280;63318;52.406;13.416;2024-02-26T10:01:29;100233.27;;;8.34;78.13
74790;BME280;63318;52.406;13.416;2024-02-26T10:03:58;100235.85;;;8.43;77.52
74790;BME280;63318;52.406;13.416;2024-02-26T10:06:28;100236.54;;;8.53;77.38
74790;BME280;63318;52.406;13.416;2024-02-26T10:08:57;100238.67;;;8.65;77.05
74790;BME280;63318;52.406;13.416;2024-02-26T10:11:26;100238.30;;;8.74;76.66
74790;BME280;63318;52.406;13.416;2024-02-26T10:13:55;100243.42;;;8.84;76.44
74790;BME280;63318;52.406;13.416;2024-02-26T10:16:23;100240.70;;;8.95;75.98
74790;BME280;63318;52.406;13.416;2024-02-26T10:18:53;100240.48;;;9.08;75.88
74790;BME280;63318;52.406;13.416;2024-02-26T10:21:22;100241.98;;;9.22;75.95
74790;BME280;63318;52.406;13.416;2024-02-26T10:23:51;100241.38;;;9.36;75.09
74790;BME280;63318;52.406;13.416;2024-02-26T10:26:20;100242.25;;;9.50;75.23
74790;BME280;63318;52.406;13.416;2024-02-26T10:28:48;100241.40;;;9.63;74.89
74790;BME280;63318;52.406;13.416;2024-02-26T10:31:17;100242.75;;;9.77;74.76
74790;BME280;63318;52.406;13.416;2024-02-26T10:33:45;100239.94;;;9.91;74.24
74790;BME280;63318;52.406;13.416;2024-02-26T10:36:13;100240.73;;;10.07;74.38
74790;BME280;63318;52.406;13.416;2024-02-26T10:38:42;100238.98;;;10.21;73.80
74790;BME280;63318;52.406;13.416;2024-02-26T10:41:14;100236.67;;;10.36;73.19
74790;BME280;63318;52.406;13.416;2024-02-26T10:43:43;100239.88;;;10.51;73.17
74790;BME280;63318;52.406;13.416;2024-02-26T10:46:11;100238.65;;;10.63;72.35
74790;BME280;63318;52.406;13.416;2024-02-26T10:48:39;100239.57;;;10.74;72.66
74790;BME280;63318;52.406;13.416;2024-02-26T10:51:10;100239.06;;;10.85;72.66
74790;BME280;63318;52.406;13.416;2024-02-26T10:53:42;100241.66;;;10.95;72.11
74790;BME280;63318;52.406;13.416;2024-02-26T10:56:11;100238.96;;;11.04;71.70
74790;BME280;63318;52.406;13.416;2024-02-26T10:58:42;100239.30;;;11.14;71.51
74790;BME280;63318;52.406;13.416;2024-02-26T11:01:13;100239.28;;;11.21;70.62
74790;BME280;63318;52.406;13.416;2024-02-26T11:03:42;100238.08;;;11.26;69.76
74790;BME280;63318;52.406;13.416;2024-02-26T11:06:11;100236.30;;;11.32;70.06
74790;BME280;63318;52.406;13.416;2024-02-26T11:08:41;100238.75;;;11.36;70.26
74790;BME280;63318;52.406;13.416;2024-02-26T11:11:10;100232.03;;;11.41;70.10
74790;BME280;63318;52.406;13.416;2024-02-26T11:13:39;100234.64;;;11.49;69.64
74790;BME280;63318;52.406;13.416;2024-02-26T11:16:08;100233.52;;;11.55;69.27
74790;BME280;63318;52.406;13.416;2024-02-26T11:18:37;100234.49;;;11.64;68.48
74790;BME280;63318;52.406;13.416;2024-02-26T11:21:07;100233.34;;;11.71;68.92
74790;BME280;63318;52.406;13.416;2024-02-26T11:23:36;100234.70;;;11.77;68.80
74790;BME280;63318;52.406;13.416;2024-02-26T11:26:05;100238.56;;;11.82;68.21
74790;BME280;63318;52.406;13.416;2024-02-26T11:28:35;100238.37;;;11.89;68.40
74790;BME280;63318;52.406;13.416;2024-02-26T11:31:05;100236.36;;;11.93;68.63
74790;BME280;63318;52.406;13.416;2024-02-26T11:33:34;100232.60;;;11.97;67.85
74790;BME280;63318;52.406;13.416;2024-02-26T11:36:03;100231.59;;;11.98;67.39
74790;BME280;63318;52.406;13.416;2024-02-26T11:38:36;100234.18;;;12.00;67.25
74790;BME280;63318;52.406;13.416;2024-02-26T11:41:05;100232.68;;;12.05;67.20
74790;BME280;63318;52.406;13.416;2024-02-26T11:43:53;100231.48;;;12.12;67.38
74790;BME280;63318;52.406;13.416;2024-02-26T11:46:29;100229.74;;;12.17;66.79
74790;BME280;63318;52.406;13.416;2024-02-26T11:49:02;100223.73;;;12.22;66.67
74790;BME280;63318;52.406;13.416;2024-02-26T11:51:35;100223.28;;;12.26;65.82
74790;BME280;63318;52.406;13.416;2024-02-26T11:54:03;100225.20;;;12.28;65.86
74790;BME280;63318;52.406;13.416;2024-02-26T11:56:34;100225.86;;;12.30;65.46
74790;BME280;63318;52.406;13.416;2024-02-26T11:59:04;100227.86;;;12.34;65.73
74790;BME280;63318;52.406;13.416;2024-02-26T12:01:43;100231.98;;;12.37;65.58
74790;BME280;63318;52.406;13.416;2024-02-26T12:04:15;100229.85;;;12.40;65.38
74790;BME280;63318;52.406;13.416;2024-02-26T12:06:50;100227.32;;;12.45;65.75
74790;BME280;63318;52.406;13.416;2024-02-26T12:09:35;100220.86;;;12.49;65.48
74790;BME280;63318;52.406;13.416;2024-02-26T12:12:06;100221.09;;;12.52;65.32
74790;BME280;63318;52.406;13.416;2024-02-26T12:14:36;100219.58;;;12.57;65.57
74790;BME280;63318;52.406;13.416;2024-02-26T12:17:05;100217.38;;;12.59;64.17
74790;BME280;63318;52.406;13.416;2024-02-26T12:19:35;100218.77;;;12.59;64.07
74790;BME280;63318;52.406;13.416;2024-02-26T12:22:04;100220.73;;;12.63;63.87
74790;BME280;63318;52.406;13.416;2024-02-26T12:24:35;100223.91;;;12.63;63.12
74790;BME280;63318;52.406;13.416;2024-02-26T12:27:03;100227.39;;;12.60;63.55
74790;BME280;63318;52.406;13.416;2024-02-26T12:29:32;100232.21;;;12.58;63.13
74790;BME280;63318;52.406;13.416;2024-02-26T12:32:00;100232.55;;;12.59;62.44
74790;BME280;63318;52.406;13.416;2024-02-26T12:34:29;100239.32;;;12.60;63.17
74790;BME280;63318;52.406;13.416;2024-02-26T12:36:58;100243.20;;;12.62;63.20
74790;BME280;63318;52.406;13.416;2024-02-26T12:39:26;100243.09;;;12.65;62.19
74790;BME280;63318;52.406;13.416;2024-02-26T12:41:55;100239.57;;;12.66;61.94
74790;BME280;63318;52.406;13.416;2024-02-26T12:44:27;100240.77;;;12.68;62.63
74790;BME280;63318;52.406;13.416;2024-02-26T12:47:03;100245.03;;;12.69;62.19
74790;BME280;63318;52.406;13.416;2024-02-26T12:49:34;100240.39;;;12.71;62.04
74790;BME280;63318;52.406;13.416;2024-02-26T12:52:03;100235.06;;;12.73;61.17
74790;BME280;63318;52.406;13.416;2024-02-26T12:54:32;100237.05;;;12.75;61.63